Terminal Aerodrome Forecast
Issued by NWS

Home | Current Version | Previous Version | Text Only | Print | Product List | Glossary Off
Versions: 1 2 3 4 5 6 7 8 9 10 11 12 13 14 15 16 17 18 19 20 21 22 23 24 25 26 27 28 29 30 31 32 33 34 35 36 37 38 39 40 41 42
638 FTUS41 KBOX 252322 TAFFMH TAF KFMH 252322Z 2600/2624 VRB03KT P6SM BKN003 FM260100 00000KT 1/2SM FG OVC002 FM261200 00000KT 1SM BR OVC003 FM261600 14004KT P6SM BKN008 FM261700 15004KT P6SM SCT250 FM262200 17006KT P6SM BKN003=

USA.gov is the U.S. government's official web portal to all federal, state and local government web resources and services.